Milouin — FT9009 — position and weather

sailwx.info

Track history (hours):
 
Tides and Currents Weather Stations Pressure Air Temp Water Temp Dewpoint Dewpoint Depression Visibility Wind Speed Wind Dir Waves Ship Positions

Milouin

Last reported at 2015-May-23 06:28 UTC. Time now 2015-May-24 03:17 UTC.
Position N 47°18' W 002°06'.

Length 36 m; draft 2.5 m.

Type: Ship. MMSI: 227003190.

Date/timePositionNaut miles runAvg speedWind from/ knotsBaromVisibWave heightAir tempDewpointWater temp
2015-May-23 06:28N 47°18' W 002°06'3 3.5
2015-May-23 05:32N 47°17' W 002°01'12 0.5
2015-May-22 04:32N 47°12' W 001°46'0 0.0
2015-May-22 03:23N 47°12' W 001°46'0 0.0
2015-May-21 22:26N 47°12' W 001°46'0 0.0
2015-May-21 21:29N 47°12' W 001°46'  
2015-May-18 07:29N 47°18' W 002°09'0 0.0
2015-May-18 06:04N 47°18' W 002°09'2 3.7
2015-May-18 05:29N 47°18' W 002°06'3 1.0
2015-May-18 02:12N 47°17' W 002°01'0 0.0
2015-May-18 01:18N 47°17' W 002°01'0 0.0
2015-May-18 00:27N 47°17' W 002°01'0 0.0
2015-May-17 10:09N 47°17' W 002°01'5 4.2
2015-May-17 09:04N 47°18' W 002°08'0 0.4
2015-May-17 08:19N 47°18' W 002°08'0 0.5
2015-May-17 07:33N 47°18' W 002°09'0 0.1
2015-May-17 06:31N 47°18' W 002°09'17 0.7
2015-May-16 05:07N 47°12' W 001°46'0 0.0
2015-May-16 00:22N 47°12' W 001°46'0 0.0
2015-May-15 23:28N 47°12' W 001°46'  
Track history (hours):
 
Tides and Currents Weather Stations Pressure Air Temp Water Temp Dewpoint Dewpoint Depression Visibility Wind Speed Wind Dir Waves Ship Positions

Milouin

Last reported at 2015-May-23 06:28 UTC. Time now 2015-May-24 03:17 UTC.
Position N 47°18' W 002°06'.

Length 36 m; draft 2.5 m.

Type: Ship. MMSI: 227003190.

Date/timePositionNaut miles runAvg speedWind from/ knotsBaromVisibWave heightAir tempDewpointWater temp
2015-May-23 06:28N 47°18' W 002°06'3 3.5
2015-May-23 05:32N 47°17' W 002°01'12 0.5
2015-May-22 04:32N 47°12' W 001°46'0 0.0
2015-May-22 03:23N 47°12' W 001°46'0 0.0
2015-May-21 22:26N 47°12' W 001°46'0 0.0
2015-May-21 21:29N 47°12' W 001°46'  
2015-May-18 07:29N 47°18' W 002°09'0 0.0
2015-May-18 06:04N 47°18' W 002°09'2 3.7
2015-May-18 05:29N 47°18' W 002°06'3 1.0
2015-May-18 02:12N 47°17' W 002°01'0 0.0
2015-May-18 01:18N 47°17' W 002°01'0 0.0
2015-May-18 00:27N 47°17' W 002°01'0 0.0
2015-May-17 10:09N 47°17' W 002°01'5 4.2
2015-May-17 09:04N 47°18' W 002°08'0 0.4
2015-May-17 08:19N 47°18' W 002°08'0 0.5
2015-May-17 07:33N 47°18' W 002°09'0 0.1
2015-May-17 06:31N 47°18' W 002°09'17 0.7
2015-May-16 05:07N 47°12' W 001°46'0 0.0
2015-May-16 00:22N 47°12' W 001°46'0 0.0
2015-May-15 23:28N 47°12' W 001°46'  

Dump ship's entire track history